sensor_id;sensor_type;location;lat;lon;timestamp;pressure;altitude;pressure_sealevel;temperature;humidity
12468;BME280;57850;52.922;6.256;2023-03-01T00:00:38;103716.59;;;3.04;nan
12468;BME280;57850;52.922;6.256;2023-03-01T00:03:04;103730.56;;;2.89;nan
12468;BME280;57850;52.922;6.256;2023-03-01T00:05:32;103737.53;;;2.70;nan
12468;BME280;57850;52.922;6.256;2023-03-01T00:07:59;103729.06;;;2.94;nan
12468;BME280;57850;52.922;6.256;2023-03-01T00:10:25;103721.16;;;3.10;nan
12468;BME280;57850;52.922;6.256;2023-03-01T00:12:52;103716.59;;;3.04;nan
12468;BME280;57850;52.922;6.256;2023-03-01T00:15:20;103714.88;;;3.03;nan
12468;BME280;57850;52.922;6.256;2023-03-01T00:17:46;103720.72;;;2.79;nan
12468;BME280;57850;52.922;6.256;2023-03-01T00:20:13;103729.50;;;2.63;nan
12468;BME280;57850;52.922;6.256;2023-03-01T00:22:40;103714.41;;;2.72;nan
12468;BME280;57850;52.922;6.256;2023-03-01T00:25:07;103715.84;;;2.65;nan
12468;BME280;57850;52.922;6.256;2023-03-01T00:27:34;103714.97;;;2.65;nan
12468;BME280;57850;52.922;6.256;2023-03-01T00:30:01;103707.03;;;2.60;nan
12468;BME280;57850;52.922;6.256;2023-03-01T00:32:28;103715.41;;;2.36;nan
12468;BME280;57850;52.922;6.256;2023-03-01T00:34:55;103709.69;;;2.43;nan
12468;BME280;57850;52.922;6.256;2023-03-01T00:37:22;103710.31;;;2.56;nan
12468;BME280;57850;52.922;6.256;2023-03-01T00:39:50;103700.69;;;2.73;nan
12468;BME280;57850;52.922;6.256;2023-03-01T00:42:17;103688.88;;;2.78;nan
12468;BME280;57850;52.922;6.256;2023-03-01T00:44:43;103698.88;;;2.70;nan
12468;BME280;57850;52.922;6.256;2023-03-01T00:47:10;103693.03;;;2.75;nan
12468;BME280;57850;52.922;6.256;2023-03-01T00:49:36;103708.28;;;2.49;nan
12468;BME280;57850;52.922;6.256;2023-03-01T00:52:03;103701.88;;;2.60;nan
12468;BME280;57850;52.922;6.256;2023-03-01T00:54:30;103699.66;;;2.69;nan
12468;BME280;57850;52.922;6.256;2023-03-01T00:56:58;103700.31;;;2.64;nan
12468;BME280;57850;52.922;6.256;2023-03-01T00:59:26;103696.91;;;2.65;nan
12468;BME280;57850;52.922;6.256;2023-03-01T01:01:52;103700.00;;;2.56;nan
12468;BME280;57850;52.922;6.256;2023-03-01T01:04:19;103692.41;;;2.59;nan
12468;BME280;57850;52.922;6.256;2023-03-01T01:06:46;103700.16;;;2.40;nan
12468;BME280;57850;52.922;6.256;2023-03-01T01:09:14;103705.16;;;2.37;nan
12468;BME280;57850;52.922;6.256;2023-03-01T01:11:43;103708.41;;;2.33;nan
12468;BME280;57850;52.922;6.256;2023-03-01T01:14:12;103704.69;;;2.27;nan
12468;BME280;57850;52.922;6.256;2023-03-01T01:16:39;103692.97;;;2.33;nan
12468;BME280;57850;52.922;6.256;2023-03-01T01:19:06;103709.03;;;2.28;nan
12468;BME280;57850;52.922;6.256;2023-03-01T01:21:33;103708.56;;;2.17;nan
12468;BME280;57850;52.922;6.256;2023-03-01T01:24:02;103699.06;;;2.35;nan
12468;BME280;57850;52.922;6.256;2023-03-01T01:26:31;103688.88;;;2.38;nan
12468;BME280;57850;52.922;6.256;2023-03-01T01:28:59;103690.94;;;2.26;nan
12468;BME280;57850;52.922;6.256;2023-03-01T01:31:27;103689.31;;;2.28;nan
12468;BME280;57850;52.922;6.256;2023-03-01T01:33:56;103685.06;;;2.29;nan
12468;BME280;57850;52.922;6.256;2023-03-01T01:36:22;103679.19;;;2.33;nan
12468;BME280;57850;52.922;6.256;2023-03-01T01:38:49;103684.09;;;2.27;nan
12468;BME280;57850;52.922;6.256;2023-03-01T01:41:16;103692.53;;;2.03;nan
12468;BME280;57850;52.922;6.256;2023-03-01T01:43:45;103683.97;;;2.04;nan
12468;BME280;57850;52.922;6.256;2023-03-01T01:46:17;103674.81;;;2.11;nan
12468;BME280;57850;52.922;6.256;2023-03-01T01:48:52;103656.50;;;2.24;nan
12468;BME280;57850;52.922;6.256;2023-03-01T01:51:24;103664.06;;;2.00;nan
12468;BME280;57850;52.922;6.256;2023-03-01T01:53:55;103659.72;;;1.99;nan
12468;BME280;57850;52.922;6.256;2023-03-01T01:56:26;103656.03;;;2.13;nan
12468;BME280;57850;52.922;6.256;2023-03-01T01:58:54;103645.31;;;2.24;nan
12468;BME280;57850;52.922;6.256;2023-03-01T02:01:21;103641.72;;;2.20;nan
12468;BME280;57850;52.922;6.256;2023-03-01T02:03:50;103647.88;;;2.03;nan
12468;BME280;57850;52.922;6.256;2023-03-01T02:06:20;103646.22;;;2.05;nan
12468;BME280;57850;52.922;6.256;2023-03-01T02:08:49;103634.72;;;2.16;nan
12468;BME280;57850;52.922;6.256;2023-03-01T02:11:18;103637.16;;;2.13;nan
12468;BME280;57850;52.922;6.256;2023-03-01T02:13:46;103645.41;;;2.06;nan
12468;BME280;57850;52.922;6.256;2023-03-01T02:16:15;103644.28;;;1.99;nan
12468;BME280;57850;52.922;6.256;2023-03-01T02:18:42;103631.84;;;2.10;nan
12468;BME280;57850;52.922;6.256;2023-03-01T02:21:20;103631.75;;;1.88;nan
12468;BME280;57850;52.922;6.256;2023-03-01T02:23:52;103648.38;;;1.57;nan
12468;BME280;57850;52.922;6.256;2023-03-01T02:26:24;103630.91;;;1.70;nan
12468;BME280;57850;52.922;6.256;2023-03-01T02:28:58;103618.19;;;1.92;nan
12468;BME280;57850;52.922;6.256;2023-03-01T02:31:24;103614.97;;;1.97;nan
12468;BME280;57850;52.922;6.256;2023-03-01T02:34:12;103607.34;;;1.80;nan
12468;BME280;57850;52.922;6.256;2023-03-01T02:36:40;103593.28;;;1.91;nan
12468;BME280;57850;52.922;6.256;2023-03-01T02:39:13;103585.56;;;1.91;nan
12468;BME280;57850;52.922;6.256;2023-03-01T02:41:45;103596.78;;;1.54;nan
12468;BME280;57850;52.922;6.256;2023-03-01T02:44:14;103599.97;;;1.49;nan
12468;BME280;57850;52.922;6.256;2023-03-01T02:46:45;103585.88;;;1.60;nan
12468;BME280;57850;52.922;6.256;2023-03-01T02:49:24;103585.13;;;1.43;nan
12468;BME280;57850;52.922;6.256;2023-03-01T02:52:01;103588.22;;;1.36;nan
12468;BME280;57850;52.922;6.256;2023-03-01T02:54:37;103584.91;;;1.39;nan
12468;BME280;57850;52.922;6.256;2023-03-01T02:57:05;103582.53;;;1.24;nan
12468;BME280;57850;52.922;6.256;2023-03-01T02:59:35;103588.88;;;0.95;nan
12468;BME280;57850;52.922;6.256;2023-03-01T03:02:04;103580.38;;;0.96;nan
12468;BME280;57850;52.922;6.256;2023-03-01T03:04:31;103579.72;;;0.83;nan
12468;BME280;57850;52.922;6.256;2023-03-01T03:06:57;103571.84;;;0.97;nan
12468;BME280;57850;52.922;6.256;2023-03-01T03:09:24;103565.00;;;0.98;nan
12468;BME280;57850;52.922;6.256;2023-03-01T03:11:50;103554.81;;;0.99;nan
12468;BME280;57850;52.922;6.256;2023-03-01T03:14:17;103555.84;;;1.03;nan
12468;BME280;57850;52.922;6.256;2023-03-01T03:16:46;103559.34;;;1.05;nan
12468;BME280;57850;52.922;6.256;2023-03-01T03:19:14;103574.00;;;0.71;nan
12468;BME280;57850;52.922;6.256;2023-03-01T03:21:41;103569.50;;;0.67;nan
12468;BME280;57850;52.922;6.256;2023-03-01T03:24:08;103570.19;;;0.80;nan
12468;BME280;57850;52.922;6.256;2023-03-01T03:26:35;103559.31;;;0.86;nan
12468;BME280;57850;52.922;6.256;2023-03-01T03:29:01;103570.47;;;0.86;nan
12468;BME280;57850;52.922;6.256;2023-03-01T03:31:28;103572.16;;;0.86;nan
12468;BME280;57850;52.922;6.256;2023-03-01T03:33:56;103571.25;;;0.85;nan
12468;BME280;57850;52.922;6.256;2023-03-01T03:36:24;103565.25;;;0.85;nan
12468;BME280;57850;52.922;6.256;2023-03-01T03:38:51;103564.00;;;0.77;nan
12468;BME280;57850;52.922;6.256;2023-03-01T03:41:17;103550.94;;;0.90;nan
12468;BME280;57850;52.922;6.256;2023-03-01T03:43:44;103566.50;;;0.75;nan
12468;BME280;57850;52.922;6.256;2023-03-01T03:46:11;103559.38;;;0.87;nan
12468;BME280;57850;52.922;6.256;2023-03-01T03:48:40;103565.91;;;0.98;nan
12468;BME280;57850;52.922;6.256;2023-03-01T03:51:10;103560.28;;;1.07;nan
12468;BME280;57850;52.922;6.256;2023-03-01T03:53:36;103565.16;;;1.01;nan
12468;BME280;57850;52.922;6.256;2023-03-01T03:56:05;103574.06;;;0.90;nan
12468;BME280;57850;52.922;6.256;2023-03-01T03:58:31;103570.97;;;0.97;nan
12468;BME280;57850;52.922;6.256;2023-03-01T04:00:59;103574.50;;;0.99;nan
12468;BME280;57850;52.922;6.256;2023-03-01T04:03:27;103578.47;;;0.92;nan
12468;BME280;57850;52.922;6.256;2023-03-01T04:05:57;103584.13;;;0.85;nan
12468;BME280;57850;52.922;6.256;2023-03-01T04:08:26;103581.50;;;0.84;nan
12468;BME280;57850;52.922;6.256;2023-03-01T04:10:57;103582.94;;;0.79;nan
12468;BME280;57850;52.922;6.256;2023-03-01T04:13:24;103577.28;;;0.86;nan
12468;BME280;57850;52.922;6.256;2023-03-01T04:15:51;103591.25;;;0.73;nan
12468;BME280;57850;52.922;6.256;2023-03-01T04:18:20;103597.31;;;0.75;nan
12468;BME280;57850;52.922;6.256;2023-03-01T04:20:47;103581.84;;;0.91;nan
12468;BME280;57850;52.922;6.256;2023-03-01T04:23:15;103583.91;;;0.81;nan
12468;BME280;57850;52.922;6.256;2023-03-01T04:25:48;103582.13;;;0.80;nan
12468;BME280;57850;52.922;6.256;2023-03-01T04:28:18;103581.47;;;0.66;nan
12468;BME280;57850;52.922;6.256;2023-03-01T04:30:45;103580.53;;;0.64;nan
12468;BME280;57850;52.922;6.256;2023-03-01T04:33:12;103579.03;;;0.69;nan
12468;BME280;57850;52.922;6.256;2023-03-01T04:35:38;103574.19;;;0.75;nan
12468;BME280;57850;52.922;6.256;2023-03-01T04:38:06;103576.41;;;0.68;nan
12468;BME280;57850;52.922;6.256;2023-03-01T04:40:32;103568.63;;;0.66;nan
12468;BME280;57850;52.922;6.256;2023-03-01T04:43:01;103583.09;;;0.46;nan
12468;BME280;57850;52.922;6.256;2023-03-01T04:45:28;103574.00;;;0.53;nan
12468;BME280;57850;52.922;6.256;2023-03-01T04:47:54;103564.88;;;0.60;nan
12468;BME280;57850;52.922;6.256;2023-03-01T04:50:24;103571.63;;;0.58;nan
12468;BME280;57850;52.922;6.256;2023-03-01T04:52:51;103581.47;;;0.31;nan
12468;BME280;57850;52.922;6.256;2023-03-01T04:55:18;103571.63;;;0.40;nan
12468;BME280;57850;52.922;6.256;2023-03-01T04:57:45;103560.03;;;0.48;nan
12468;BME280;57850;52.922;6.256;2023-03-01T05:00:14;103550.22;;;0.75;nan
12468;BME280;57850;52.922;6.256;2023-03-01T05:02:47;103557.78;;;0.72;nan
12468;BME280;57850;52.922;6.256;2023-03-01T05:05:19;103554.94;;;0.66;nan
12468;BME280;57850;52.922;6.256;2023-03-01T05:07:46;103557.78;;;0.72;nan
12468;BME280;57850;52.922;6.256;2023-03-01T05:10:12;103553.31;;;0.68;nan
12468;BME280;57850;52.922;6.256;2023-03-01T05:12:39;103560.06;;;0.66;nan
12468;BME280;57850;52.922;6.256;2023-03-01T05:15:07;103556.16;;;0.74;nan
12468;BME280;57850;52.922;6.256;2023-03-01T05:17:35;103539.94;;;0.75;nan
12468;BME280;57850;52.922;6.256;2023-03-01T05:20:02;103534.66;;;0.72;nan
12468;BME280;57850;52.922;6.256;2023-03-01T05:22:33;103539.22;;;0.77;nan
12468;BME280;57850;52.922;6.256;2023-03-01T05:24:59;103550.81;;;0.51;nan
12468;BME280;57850;52.922;6.256;2023-03-01T05:27:27;103539.94;;;0.39;nan
12468;BME280;57850;52.922;6.256;2023-03-01T05:29:54;103544.19;;;0.39;nan
12468;BME280;57850;52.922;6.256;2023-03-01T05:32:21;103532.97;;;0.37;nan
12468;BME280;57850;52.922;6.256;2023-03-01T05:34:49;103546.00;;;0.24;nan
12468;BME280;57850;52.922;6.256;2023-03-01T05:37:17;103531.56;;;0.26;nan
12468;BME280;57850;52.922;6.256;2023-03-01T05:39:44;103522.75;;;0.38;nan
12468;BME280;57850;52.922;6.256;2023-03-01T05:42:11;103525.41;;;0.40;nan
12468;BME280;57850;52.922;6.256;2023-03-01T05:44:38;103523.50;;;0.36;nan
12468;BME280;57850;52.922;6.256;2023-03-01T05:47:04;103519.25;;;0.36;nan
12468;BME280;57850;52.922;6.256;2023-03-01T05:49:32;103512.56;;;0.40;nan
12468;BME280;57850;52.922;6.256;2023-03-01T05:51:59;103510.91;;;0.40;nan
12468;BME280;57850;52.922;6.256;2023-03-01T05:54:27;103512.72;;;0.43;nan
12468;BME280;57850;52.922;6.256;2023-03-01T05:56:53;103520.00;;;0.34;nan
12468;BME280;57850;52.922;6.256;2023-03-01T05:59:20;103522.16;;;0.26;nan
12468;BME280;57850;52.922;6.256;2023-03-01T06:01:46;103513.66;;;0.27;nan
12468;BME280;57850;52.922;6.256;2023-03-01T06:04:13;103513.97;;;0.33;nan
12468;BME280;57850;52.922;6.256;2023-03-01T06:06:39;103506.91;;;0.29;nan
12468;BME280;57850;52.922;6.256;2023-03-01T06:09:07;103503.75;;;0.35;nan
12468;BME280;57850;52.922;6.256;2023-03-01T06:11:35;103510.59;;;0.34;nan
12468;BME280;57850;52.922;6.256;2023-03-01T06:14:03;103518.81;;;0.27;nan
12468;BME280;57850;52.922;6.256;2023-03-01T06:16:29;103516.38;;;0.30;nan
12468;BME280;57850;52.922;6.256;2023-03-01T06:18:56;103520.41;;;0.25;nan
12468;BME280;57850;52.922;6.256;2023-03-01T06:21:23;103524.16;;;0.32;nan
12468;BME280;57850;52.922;6.256;2023-03-01T06:23:49;103531.50;;;0.24;nan
12468;BME280;57850;52.922;6.256;2023-03-01T06:26:18;103538.00;;;0.18;nan
12468;BME280;57850;52.922;6.256;2023-03-01T06:28:45;103529.22;;;0.30;nan
12468;BME280;57850;52.922;6.256;2023-03-01T06:31:11;103523.50;;;0.36;nan
12468;BME280;57850;52.922;6.256;2023-03-01T06:33:38;103528.97;;;0.26;nan
12468;BME280;57850;52.922;6.256;2023-03-01T06:36:05;103534.06;;;0.24;nan
12468;BME280;57850;52.922;6.256;2023-03-01T06:38:32;103536.63;;;0.24;nan
12468;BME280;57850;52.922;6.256;2023-03-01T06:40:58;103539.03;;;0.21;nan
12468;BME280;57850;52.922;6.256;2023-03-01T06:43:28;103557.50;;;0.14;nan
12468;BME280;57850;52.922;6.256;2023-03-01T06:45:55;103544.31;;;0.24;nan
12468;BME280;57850;52.922;6.256;2023-03-01T06:48:21;103547.53;;;0.20;nan
12468;BME280;57850;52.922;6.256;2023-03-01T06:50:48;103553.84;;;0.09;nan
12468;BME280;57850;52.922;6.256;2023-03-01T06:53:14;103562.53;;;0.13;nan
12468;BME280;57850;52.922;6.256;2023-03-01T06:55:41;103558.69;;;0.21;nan
12468;BME280;57850;52.922;6.256;2023-03-01T06:58:09;103560.91;;;0.31;nan
12468;BME280;57850;52.922;6.256;2023-03-01T07:00:37;103552.69;;;0.38;nan
12468;BME280;57850;52.922;6.256;2023-03-01T07:03:06;103559.75;;;0.42;nan
12468;BME280;57850;52.922;6.256;2023-03-01T07:05:33;103556.72;;;0.50;nan
12468;BME280;57850;52.922;6.256;2023-03-01T07:07:59;103554.59;;;0.60;nan
12468;BME280;57850;52.922;6.256;2023-03-01T07:10:26;103548.63;;;0.59;nan
12468;BME280;57850;52.922;6.256;2023-03-01T07:12:54;103546.25;;;0.64;nan
12468;BME280;57850;52.922;6.256;2023-03-01T07:15:21;103553.59;;;0.56;nan
12468;BME280;57850;52.922;6.256;2023-03-01T07:17:49;103543.59;;;0.80;nan
12468;BME280;57850;52.922;6.256;2023-03-01T07:20:16;103547.06;;;0.80;nan
12468;BME280;57850;52.922;6.256;2023-03-01T07:22:43;103553.22;;;0.84;nan
12468;BME280;57850;52.922;6.256;2023-03-01T07:25:10;103545.81;;;0.90;nan
12468;BME280;57850;52.922;6.256;2023-03-01T07:27:36;103535.94;;;0.99;nan
12468;BME280;57850;52.922;6.256;2023-03-01T07:30:04;103535.28;;;1.03;nan
12468;BME280;57850;52.922;6.256;2023-03-01T07:32:31;103528.00;;;1.12;nan
12468;BME280;57850;52.922;6.256;2023-03-01T07:34:58;103519.81;;;1.21;nan
12468;BME280;57850;52.922;6.256;2023-03-01T07:37:25;103521.50;;;1.20;nan
12468;BME280;57850;52.922;6.256;2023-03-01T07:39:51;103507.50;;;1.33;nan
12468;BME280;57850;52.922;6.256;2023-03-01T07:42:18;103512.38;;;1.27;nan
12468;BME280;57850;52.922;6.256;2023-03-01T07:44:45;103508.66;;;1.39;nan
12468;BME280;57850;52.922;6.256;2023-03-01T07:47:11;103494.88;;;1.58;nan
12468;BME280;57850;52.922;6.256;2023-03-01T07:49:38;103489.75;;;1.79;nan
12468;BME280;57850;52.922;6.256;2023-03-01T07:52:05;103485.41;;;1.97;nan
12468;BME280;57850;52.922;6.256;2023-03-01T07:54:32;103480.31;;;1.98;nan
12468;BME280;57850;52.922;6.256;2023-03-01T07:56:59;103489.25;;;2.06;nan
12468;BME280;57850;52.922;6.256;2023-03-01T07:59:28;103482.06;;;2.20;nan
12468;BME280;57850;52.922;6.256;2023-03-01T08:01:55;103487.47;;;2.26;nan
12468;BME280;57850;52.922;6.256;2023-03-01T08:04:21;103473.34;;;2.37;nan
12468;BME280;57850;52.922;6.256;2023-03-01T08:06:50;103475.34;;;2.44;nan
12468;BME280;57850;52.922;6.256;2023-03-01T08:09:17;103485.56;;;2.43;nan
12468;BME280;57850;52.922;6.256;2023-03-01T08:11:44;103472.13;;;2.72;nan
12468;BME280;57850;52.922;6.256;2023-03-01T08:14:10;103466.53;;;2.84;nan
12468;BME280;57850;52.922;6.256;2023-03-01T08:16:37;103448.69;;;3.12;nan
12468;BME280;57850;52.922;6.256;2023-03-01T08:19:04;103443.63;;;3.39;nan
12468;BME280;57850;52.922;6.256;2023-03-01T08:21:32;103432.50;;;3.65;nan
12468;BME280;57850;52.922;6.256;2023-03-01T08:24:00;103414.88;;;4.04;nan
12468;BME280;57850;52.922;6.256;2023-03-01T08:26:28;103403.34;;;4.49;nan
12468;BME280;57850;52.922;6.256;2023-03-01T08:28:54;103390.63;;;4.85;nan
12468;BME280;57850;52.922;6.256;2023-03-01T08:31:22;103388.00;;;5.15;nan
12468;BME280;57850;52.922;6.256;2023-03-01T08:33:51;103379.03;;;5.68;nan
12468;BME280;57850;52.922;6.256;2023-03-01T08:36:20;103375.88;;;5.79;nan
12468;BME280;57850;52.922;6.256;2023-03-01T08:38:48;103364.63;;;6.15;nan
12468;BME280;57850;52.922;6.256;2023-03-01T08:41:14;103343.00;;;6.95;nan
12468;BME280;57850;52.922;6.256;2023-03-01T08:43:42;103312.34;;;7.76;nan
12468;BME280;57850;52.922;6.256;2023-03-01T08:46:09;103297.56;;;8.34;nan
12468;BME280;57850;52.922;6.256;2023-03-01T08:48:36;103277.56;;;9.06;nan
12468;BME280;57850;52.922;6.256;2023-03-01T08:51:10;103244.22;;;9.79;nan
12468;BME280;57850;52.922;6.256;2023-03-01T08:53:37;103220.16;;;10.27;nan
12468;BME280;57850;52.922;6.256;2023-03-01T08:56:04;103221.88;;;10.27;nan
12468;BME280;57850;52.922;6.256;2023-03-01T08:58:31;103196.75;;;10.83;nan
12468;BME280;57850;52.922;6.256;2023-03-01T09:00:59;103213.25;;;10.61;nan
12468;BME280;57850;52.922;6.256;2023-03-01T09:03:26;103182.78;;;11.19;nan
12468;BME280;57850;52.922;6.256;2023-03-01T09:05:59;103150.28;;;12.11;nan
12468;BME280;57850;52.922;6.256;2023-03-01T09:08:26;103120.25;;;12.62;nan
12468;BME280;57850;52.922;6.256;2023-03-01T09:10:53;103111.41;;;12.78;nan
12468;BME280;57850;52.922;6.256;2023-03-01T09:13:20;103092.72;;;13.13;nan
12468;BME280;57850;52.922;6.256;2023-03-01T09:15:48;103122.03;;;12.58;nan
12468;BME280;57850;52.922;6.256;2023-03-01T09:18:16;103125.53;;;12.57;nan
12468;BME280;57850;52.922;6.256;2023-03-01T09:20:43;103133.53;;;12.39;nan
12468;BME280;57850;52.922;6.256;2023-03-01T09:23:09;103130.94;;;12.33;nan
12468;BME280;57850;52.922;6.256;2023-03-01T09:25:36;103119.44;;;12.55;nan
12468;BME280;57850;52.922;6.256;2023-03-01T09:28:03;103111.56;;;12.57;nan
12468;BME280;57850;52.922;6.256;2023-03-01T09:30:30;103128.22;;;12.44;nan
12468;BME280;57850;52.922;6.256;2023-03-01T09:32:56;103138.84;;;12.22;nan
12468;BME280;57850;52.922;6.256;2023-03-01T09:35:24;103119.50;;;12.49;nan
12468;BME280;57850;52.922;6.256;2023-03-01T09:37:51;103091.94;;;13.00;nan
12468;BME280;57850;52.922;6.256;2023-03-01T09:40:20;103060.00;;;13.46;nan
12468;BME280;57850;52.922;6.256;2023-03-01T09:42:53;103062.72;;;13.39;nan
12468;BME280;57850;52.922;6.256;2023-03-01T09:45:26;103059.94;;;13.52;nan
12468;BME280;57850;52.922;6.256;2023-03-01T09:47:55;103033.56;;;14.20;nan
12468;BME280;57850;52.922;6.256;2023-03-01T09:50:26;103035.66;;;13.99;nan
12468;BME280;57850;52.922;6.256;2023-03-01T09:53:00;103073.41;;;13.21;nan
12468;BME280;57850;52.922;6.256;2023-03-01T09:55:31;102991.72;;;15.06;nan
12468;BME280;57850;52.922;6.256;2023-03-01T09:58:04;102972.34;;;15.10;nan
12468;BME280;57850;52.922;6.256;2023-03-01T10:00:38;102983.84;;;15.06;nan
12468;BME280;57850;52.922;6.256;2023-03-01T10:03:12;102956.88;;;15.36;nan
12468;BME280;57850;52.922;6.256;2023-03-01T10:05:48;102890.25;;;16.39;nan
12468;BME280;57850;52.922;6.256;2023-03-01T10:08:28;102873.75;;;16.65;nan
12468;BME280;57850;52.922;6.256;2023-03-01T10:10:57;102861.69;;;16.85;nan
12468;BME280;57850;52.922;6.256;2023-03-01T10:13:26;102851.41;;;16.78;nan
12468;BME280;57850;52.922;6.256;2023-03-01T10:15:56;102854.72;;;16.84;nan
12468;BME280;57850;52.922;6.256;2023-03-01T10:18:26;102828.66;;;17.03;nan
12468;BME280;57850;52.922;6.256;2023-03-01T10:20:57;102810.09;;;17.32;nan
12468;BME280;57850;52.922;6.256;2023-03-01T10:23:25;102846.44;;;16.67;nan
12468;BME280;57850;52.922;6.256;2023-03-01T10:26:32;102814.47;;;17.33;nan
12468;BME280;57850;52.922;6.256;2023-03-01T10:29:06;102804.38;;;17.46;nan
12468;BME280;57850;52.922;6.256;2023-03-01T10:31:39;102801.53;;;17.26;nan
12468;BME280;57850;52.922;6.256;2023-03-01T10:34:11;102777.22;;;17.93;nan
12468;BME280;57850;52.922;6.256;2023-03-01T10:36:41;102773.78;;;17.91;nan
12468;BME280;57850;52.922;6.256;2023-03-01T10:39:14;102768.06;;;18.03;nan
12468;BME280;57850;52.922;6.256;2023-03-01T10:42:03;102779.53;;;17.78;nan
12468;BME280;57850;52.922;6.256;2023-03-01T10:44:49;102763.38;;;17.87;nan
12468;BME280;57850;52.922;6.256;2023-03-01T10:47:18;102726.94;;;18.86;nan
12468;BME280;57850;52.922;6.256;2023-03-01T10:49:54;102733.19;;;18.63;nan
12468;BME280;57850;52.922;6.256;2023-03-01T10:52:26;102728.94;;;18.81;nan
12468;BME280;57850;52.922;6.256;2023-03-01T10:54:56;102736.91;;;18.35;nan
12468;BME280;57850;52.922;6.256;2023-03-01T10:57:30;102707.09;;;18.98;nan
12468;BME280;57850;52.922;6.256;2023-03-01T11:00:27;102707.75;;;19.03;nan
12468;BME280;57850;52.922;6.256;2023-03-01T11:03:11;102691.88;;;19.45;nan
12468;BME280;57850;52.922;6.256;2023-03-01T11:05:51;102715.00;;;19.19;nan
12468;BME280;57850;52.922;6.256;2023-03-01T11:08:30;102706.09;;;19.20;nan
12468;BME280;57850;52.922;6.256;2023-03-01T11:11:05;102713.69;;;19.08;nan
12468;BME280;57850;52.922;6.256;2023-03-01T11:13:32;102706.53;;;19.32;nan
12468;BME280;57850;52.922;6.256;2023-03-01T11:16:00;102679.91;;;19.55;nan
12468;BME280;57850;52.922;6.256;2023-03-01T11:18:29;102660.94;;;19.84;nan
12468;BME280;57850;52.922;6.256;2023-03-01T11:20:57;102712.44;;;18.75;nan
12468;BME280;57850;52.922;6.256;2023-03-01T11:23:25;102651.97;;;20.24;nan
12468;BME280;57850;52.922;6.256;2023-03-01T11:25:56;102673.41;;;20.01;nan
12468;BME280;57850;52.922;6.256;2023-03-01T11:28:26;102688.84;;;19.72;nan
12468;BME280;57850;52.922;6.256;2023-03-01T11:30:55;102701.19;;;19.53;nan
12468;BME280;57850;52.922;6.256;2023-03-01T11:33:35;102706.81;;;19.46;nan
12468;BME280;57850;52.922;6.256;2023-03-01T11:36:07;102700.63;;;19.25;nan
12468;BME280;57850;52.922;6.256;2023-03-01T11:38:38;102696.13;;;19.07;nan
12468;BME280;57850;52.922;6.256;2023-03-01T11:41:10;102699.31;;;19.35;nan
12468;BME280;57850;52.922;6.256;2023-03-01T11:43:46;102699.81;;;19.03;nan
12468;BME280;57850;52.922;6.256;2023-03-01T11:46:39;102694.19;;;19.31;nan
12468;BME280;57850;52.922;6.256;2023-03-01T11:49:21;102657.94;;;19.92;nan
12468;BME280;57850;52.922;6.256;2023-03-01T11:51:56;102656.69;;;20.17;nan
12468;BME280;57850;52.922;6.256;2023-03-01T11:54:30;102707.47;;;18.89;nan
12468;BME280;57850;52.922;6.256;2023-03-01T11:57:07;102642.38;;;19.84;nan
12468;BME280;57850;52.922;6.256;2023-03-01T12:00:13;102651.50;;;19.78;nan
12468;BME280;57850;52.922;6.256;2023-03-01T12:03:08;102685.25;;;19.33;nan
12468;BME280;57850;52.922;6.256;2023-03-01T12:06:04;102677.13;;;18.97;nan
12468;BME280;57850;52.922;6.256;2023-03-01T12:08:38;102688.56;;;18.98;nan
12468;BME280;57850;52.922;6.256;2023-03-01T12:11:17;102690.13;;;18.82;nan
12468;BME280;57850;52.922;6.256;2023-03-01T12:17:02;102646.78;;;19.26;nan
12468;BME280;57850;52.922;6.256;2023-03-01T12:19:58;102678.72;;;19.01;nan
12468;BME280;57850;52.922;6.256;2023-03-01T12:22:30;102654.31;;;19.35;nan
12468;BME280;57850;52.922;6.256;2023-03-01T12:25:16;102628.94;;;19.89;nan
12468;BME280;57850;52.922;6.256;2023-03-01T12:27:56;102641.28;;;19.51;nan
12468;BME280;57850;52.922;6.256;2023-03-01T12:30:38;102612.03;;;19.91;nan
12468;BME280;57850;52.922;6.256;2023-03-01T12:33:17;102571.22;;;20.67;nan
12468;BME280;57850;52.922;6.256;2023-03-01T12:36:19;102613.31;;;20.01;nan
12468;BME280;57850;52.922;6.256;2023-03-01T12:38:57;102595.41;;;20.06;nan
12468;BME280;57850;52.922;6.256;2023-03-01T12:41:46;102614.28;;;19.61;nan
12468;BME280;57850;52.922;6.256;2023-03-01T12:44:27;102606.31;;;19.63;nan
12468;BME280;57850;52.922;6.256;2023-03-01T12:47:07;102607.91;;;19.47;nan
12468;BME280;57850;52.922;6.256;2023-03-01T12:49:41;102614.69;;;19.13;nan
12468;BME280;57850;52.922;6.256;2023-03-01T12:52:14;102596.59;;;19.43;nan
12468;BME280;57850;52.922;6.256;2023-03-01T12:54:45;102606.78;;;19.32;nan
12468;BME280;57850;52.922;6.256;2023-03-01T12:57:15;102602.47;;;19.30;nan
12468;BME280;57850;52.922;6.256;2023-03-01T12:59:51;102569.22;;;19.63;nan
12468;BME280;57850;52.922;6.256;2023-03-01T13:02:31;102610.03;;;18.78;nan
12468;BME280;57850;52.922;6.256;2023-03-01T13:05:14;102597.88;;;18.94;nan
12468;BME280;57850;52.922;6.256;2023-03-01T13:07:52;102589.91;;;19.14;nan
12468;BME280;57850;52.922;6.256;2023-03-01T13:10:26;102570.38;;;19.57;nan
12468;BME280;57850;52.922;6.256;2023-03-01T13:13:13;102577.66;;;19.52;nan
12468;BME280;57850;52.922;6.256;2023-03-01T13:15:41;102592.25;;;19.02;nan
12468;BME280;57850;52.922;6.256;2023-03-01T13:18:31;102577.19;;;19.04;nan
12468;BME280;57850;52.922;6.256;2023-03-01T13:21:04;102577.16;;;18.84;nan
12468;BME280;57850;52.922;6.256;2023-03-01T13:23:34;102607.41;;;18.35;nan
12468;BME280;57850;52.922;6.256;2023-03-01T13:26:04;102595.47;;;18.46;nan
12468;BME280;57850;52.922;6.256;2023-03-01T13:28:48;102577.97;;;18.86;nan
12468;BME280;57850;52.922;6.256;2023-03-01T13:34:50;102588.91;;;18.77;nan
12468;BME280;57850;52.922;6.256;2023-03-01T13:37:24;102568.63;;;18.97;nan
12468;BME280;57850;52.922;6.256;2023-03-01T13:39:55;102588.53;;;18.65;nan